Arlington, Colorado
Current Conditions -  °F | °C
As of 8:53 PM on Saturday 20 Dec 2014 (Local Time) from KLHX Reporting Station
Clear Clear  
Wind Chill: 26°   Ceiling: Unl
Heat Index: 32°   Visibility: 10mi
Dew Point: 26°   Wind: 6mph
Humidity: 79%   Direction: 80°E
Pressure: 29.91"   Gusts: NA
Location:  38.34°N, 103.34°W
Report Text: KLHX 210353Z AUTO 08005KT 10SM CLR 00/M03 A2991 RMK AO2 SLP142 T00001033
Loading
Personal Weather Stations






























Interactive Weather Map New forecast layout! Learn more

10-Day Weather Forecast

Advertisements
Track Severe Weather on mobile